createdAt,value
2018-09-30T00:00:01.614Z,8.10
2018-09-30T00:02:30.204Z,8.00
2018-09-30T00:04:58.797Z,8.00
2018-09-30T00:07:27.385Z,8.10
2018-09-30T00:09:55.992Z,8.10
2018-09-30T00:12:24.561Z,8.00
2018-09-30T00:14:53.161Z,7.90
2018-09-30T00:17:21.779Z,8.00
2018-09-30T00:19:50.392Z,8.00
2018-09-30T00:22:18.976Z,8.00
2018-09-30T00:24:53.201Z,7.90
2018-09-30T00:27:22.707Z,7.90
2018-09-30T00:29:51.301Z,7.90
2018-09-30T00:32:19.903Z,7.80
2018-09-30T00:34:48.507Z,7.90
2018-09-30T00:37:17.080Z,7.90
2018-09-30T00:39:45.681Z,7.80
2018-09-30T00:42:14.443Z,7.90
2018-09-30T00:44:43.065Z,7.90
2018-09-30T00:47:11.657Z,7.80
2018-09-30T00:49:40.249Z,7.80
2018-09-30T00:52:08.817Z,7.80
2018-09-30T00:54:37.421Z,7.80
2018-09-30T00:57:06.020Z,7.80
2018-09-30T00:59:34.616Z,7.70
2018-09-30T01:02:03.191Z,7.70
2018-09-30T01:04:31.774Z,7.70
2018-09-30T01:07:00.339Z,7.70
2018-09-30T01:09:28.932Z,7.70
2018-09-30T01:11:57.512Z,7.70
2018-09-30T01:14:26.121Z,7.70
2018-09-30T01:16:54.701Z,7.70
2018-09-30T01:19:23.285Z,7.60
2018-09-30T01:21:52.202Z,7.60
2018-09-30T01:24:20.772Z,7.60
2018-09-30T01:26:49.372Z,7.50
2018-09-30T01:29:17.969Z,7.60
2018-09-30T01:31:46.607Z,7.60
2018-09-30T01:34:15.170Z,7.60
2018-09-30T01:36:43.768Z,7.50
2018-09-30T01:39:12.356Z,7.50
2018-09-30T01:41:40.973Z,7.50
2018-09-30T01:44:09.538Z,7.50
2018-09-30T01:46:38.116Z,7.50
2018-09-30T01:49:06.825Z,7.50
2018-09-30T01:51:35.429Z,7.40
2018-09-30T01:54:04.009Z,7.50
2018-09-30T01:56:32.609Z,7.50
2018-09-30T01:59:01.199Z,7.50
2018-09-30T02:01:29.788Z,7.50
2018-09-30T02:03:58.607Z,7.50
2018-09-30T02:06:27.196Z,7.50
2018-09-30T02:08:55.767Z,7.50
2018-09-30T02:11:24.357Z,7.50
2018-09-30T02:13:52.916Z,7.50
2018-09-30T02:16:21.504Z,7.50
2018-09-30T02:18:50.072Z,7.50
2018-09-30T02:21:19.672Z,7.50
2018-09-30T02:23:48.242Z,7.40
2018-09-30T02:26:16.849Z,7.40
2018-09-30T02:28:45.549Z,7.40
2018-09-30T02:31:14.201Z,7.30
2018-09-30T02:33:42.878Z,7.30
2018-09-30T02:36:11.480Z,7.30
2018-09-30T02:38:40.048Z,7.30
2018-09-30T02:41:09.026Z,7.20
2018-09-30T02:43:37.602Z,7.00
2018-09-30T02:46:06.252Z,7.00
2018-09-30T02:48:34.829Z,7.00
2018-09-30T02:51:04.080Z,7.00
2018-09-30T02:53:34.218Z,7.00
2018-09-30T02:56:02.846Z,7.00
2018-09-30T02:58:31.474Z,7.00
2018-09-30T03:01:00.055Z,7.10
2018-09-30T03:03:29.093Z,7.00
2018-09-30T03:05:57.715Z,7.00
2018-09-30T03:08:31.542Z,7.00
2018-09-30T03:11:00.110Z,6.90
2018-09-30T03:13:28.713Z,6.90
2018-09-30T03:15:57.274Z,7.00
2018-09-30T03:18:25.869Z,6.90
2018-09-30T03:20:54.431Z,6.90
2018-09-30T03:23:23.025Z,6.90
2018-09-30T03:25:52.103Z,6.90
2018-09-30T03:28:20.694Z,6.80
2018-09-30T03:30:49.253Z,6.70
2018-09-30T03:33:17.857Z,6.70
2018-09-30T03:35:46.428Z,6.80
2018-09-30T03:38:15.085Z,6.70
2018-09-30T03:40:43.676Z,6.80
2018-09-30T03:43:12.268Z,6.70
2018-09-30T03:45:40.862Z,6.60
2018-09-30T03:48:09.481Z,6.70
2018-09-30T03:50:38.182Z,6.70
2018-09-30T03:53:06.851Z,6.60
2018-09-30T03:55:35.431Z,6.60
2018-09-30T03:58:04.033Z,6.60
2018-09-30T04:00:32.613Z,6.60
2018-09-30T04:03:01.200Z,6.50
2018-09-30T04:05:29.775Z,6.50
2018-09-30T04:07:58.999Z,6.50
2018-09-30T04:10:27.729Z,6.50
2018-09-30T04:12:57.412Z,6.50
2018-09-30T04:15:26.041Z,6.50
2018-09-30T04:17:54.605Z,6.50
2018-09-30T04:20:23.197Z,6.50
2018-09-30T04:22:51.749Z,6.50
2018-09-30T04:25:20.425Z,6.50
2018-09-30T04:27:49.555Z,6.30
2018-09-30T04:30:18.162Z,6.40
2018-09-30T04:32:46.761Z,6.40
2018-09-30T04:35:15.353Z,6.40
2018-09-30T04:37:43.924Z,6.50
2018-09-30T04:40:12.537Z,6.30
2018-09-30T04:42:41.123Z,6.20
2018-09-30T04:45:09.763Z,6.30
2018-09-30T04:47:38.341Z,6.40
2018-09-30T04:50:06.973Z,6.30
2018-09-30T04:52:35.532Z,6.30
2018-09-30T04:55:04.182Z,6.20
2018-09-30T04:57:33.073Z,6.20
2018-09-30T05:00:01.734Z,6.20
2018-09-30T05:02:30.333Z,6.20
2018-09-30T05:04:58.933Z,6.10
2018-09-30T05:07:27.924Z,6.20
2018-09-30T05:09:56.518Z,6.10
2018-09-30T05:12:25.096Z,6.20
2018-09-30T05:14:53.676Z,6.20
2018-09-30T05:17:22.272Z,6.00
2018-09-30T05:19:50.877Z,6.10
2018-09-30T05:22:19.456Z,6.10
2018-09-30T05:24:48.053Z,6.10
2018-09-30T05:27:16.625Z,6.20
2018-09-30T05:29:45.222Z,6.20
2018-09-30T05:32:13.776Z,6.10
2018-09-30T05:34:43.021Z,6.10
2018-09-30T05:37:11.625Z,6.20
2018-09-30T05:39:40.348Z,6.20
2018-09-30T05:42:08.939Z,6.30
2018-09-30T05:44:37.729Z,6.20
2018-09-30T05:47:06.802Z,6.10
2018-09-30T05:49:35.388Z,6.20
2018-09-30T05:52:04.020Z,6.20
2018-09-30T05:54:32.592Z,6.20
2018-09-30T05:57:01.172Z,6.20
2018-09-30T05:59:29.760Z,6.20
2018-09-30T06:01:58.344Z,6.30
2018-09-30T06:04:26.909Z,6.30
2018-09-30T06:06:55.515Z,6.20
2018-09-30T06:09:24.119Z,6.30
2018-09-30T06:11:52.734Z,6.40
2018-09-30T06:14:21.405Z,6.40
2018-09-30T06:16:49.946Z,6.40
2018-09-30T06:19:18.529Z,6.50
2018-09-30T06:21:47.124Z,6.50
2018-09-30T06:24:16.547Z,6.50
2018-09-30T06:26:45.098Z,6.60
2018-09-30T06:29:13.665Z,6.60
2018-09-30T06:31:42.295Z,6.70
2018-09-30T06:34:10.864Z,6.80
2018-09-30T06:36:39.472Z,6.80
2018-09-30T06:39:09.372Z,6.80
2018-09-30T06:41:38.416Z,7.00
2018-09-30T06:44:07.541Z,7.60
2018-09-30T06:46:36.126Z,8.40
2018-09-30T06:49:05.188Z,9.20
2018-09-30T06:51:33.790Z,9.70
2018-09-30T06:54:02.364Z,10.60
2018-09-30T06:56:31.425Z,11.30
2018-09-30T06:59:00.046Z,12.00
2018-09-30T07:01:28.697Z,12.60
2018-09-30T07:03:57.261Z,13.10
2018-09-30T07:06:25.861Z,13.70
2018-09-30T07:08:54.437Z,14.20
2018-09-30T07:11:23.053Z,14.80
2018-09-30T07:13:51.629Z,15.50
2018-09-30T07:16:20.225Z,15.80
2018-09-30T07:18:48.793Z,16.20
2018-09-30T07:21:17.436Z,16.60
2018-09-30T07:23:46.025Z,17.10
2018-09-30T07:26:14.636Z,17.40
2018-09-30T07:28:43.265Z,17.70
2018-09-30T07:31:11.845Z,18.10
2018-09-30T07:33:41.121Z,18.50
2018-09-30T07:36:09.748Z,18.90
2018-09-30T07:38:38.373Z,19.20
2018-09-30T07:41:07.008Z,19.90
2018-09-30T07:43:35.917Z,20.30
2018-09-30T07:46:04.545Z,20.60
2018-09-30T07:48:33.144Z,21.10
2018-09-30T07:51:01.727Z,21.50
2018-09-30T07:53:30.329Z,22.00
2018-09-30T07:55:58.914Z,22.50
2018-09-30T07:58:27.528Z,22.70
2018-09-30T08:00:56.370Z,22.90
2018-09-30T08:03:24.988Z,23.50
2018-09-30T08:05:53.625Z,23.60
2018-09-30T08:08:22.238Z,24.00
2018-09-30T08:10:51.134Z,24.30
2018-09-30T08:13:19.767Z,24.60
2018-09-30T08:15:48.376Z,24.60
2018-09-30T08:18:17.204Z,24.80
2018-09-30T08:20:45.784Z,24.80
2018-09-30T08:23:14.397Z,25.30
2018-09-30T08:25:42.994Z,25.70
2018-09-30T08:28:11.833Z,25.80
2018-09-30T08:30:40.605Z,25.60
2018-09-30T08:33:09.205Z,24.70
2018-09-30T08:35:37.802Z,25.60
2018-09-30T08:38:11.866Z,26.00
2018-09-30T08:40:46.069Z,26.60
2018-09-30T08:43:14.929Z,26.70
2018-09-30T08:45:43.664Z,27.10
2018-09-30T08:48:12.269Z,27.40
2018-09-30T08:50:40.841Z,27.40
2018-09-30T08:53:09.440Z,27.70
2018-09-30T08:55:38.024Z,27.60
2018-09-30T08:58:06.706Z,27.80
2018-09-30T09:00:35.522Z,28.10
2018-09-30T09:03:04.183Z,28.50
2018-09-30T09:05:32.756Z,28.10
2018-09-30T09:08:01.357Z,28.30
2018-09-30T09:10:29.945Z,28.00
2018-09-30T09:12:58.629Z,28.00
2018-09-30T09:15:27.670Z,27.90
2018-09-30T09:17:56.234Z,27.70
2018-09-30T09:20:24.814Z,27.80
2018-09-30T09:22:53.583Z,28.00
2018-09-30T09:25:22.255Z,28.90
2018-09-30T09:27:50.905Z,30.10
2018-09-30T09:30:19.713Z,29.90
2018-09-30T09:32:48.746Z,29.80
2018-09-30T09:35:17.337Z,30.00
2018-09-30T09:37:45.933Z,30.20
2018-09-30T09:40:14.617Z,30.40
2018-09-30T09:42:43.210Z,30.40
2018-09-30T09:45:14.720Z,30.90
2018-09-30T09:47:43.299Z,30.50
2018-09-30T09:50:11.923Z,31.00
2018-09-30T09:52:40.577Z,30.30
2018-09-30T09:55:09.307Z,29.20
2018-09-30T09:57:37.929Z,29.30
2018-09-30T10:00:07.637Z,29.40
2018-09-30T10:02:36.242Z,29.40
2018-09-30T10:05:04.998Z,30.10
2018-09-30T10:07:33.578Z,30.80
2018-09-30T10:10:02.201Z,31.40
2018-09-30T10:12:30.798Z,31.60
2018-09-30T10:14:59.393Z,31.80
2018-09-30T10:17:27.976Z,31.90
2018-09-30T10:19:56.568Z,31.70
2018-09-30T10:22:25.160Z,31.20
2018-09-30T10:24:53.744Z,31.60
2018-09-30T10:27:22.334Z,32.30
2018-09-30T10:29:51.117Z,32.40
2018-09-30T10:32:19.701Z,32.10
2018-09-30T10:34:48.336Z,32.00
2018-09-30T10:37:16.909Z,32.00
2018-09-30T10:39:45.509Z,31.70
2018-09-30T10:42:14.614Z,31.70
2018-09-30T10:44:43.206Z,31.90
2018-09-30T10:47:11.786Z,31.60
2018-09-30T10:49:41.230Z,31.50
2018-09-30T10:52:09.817Z,31.10
2018-09-30T10:54:38.429Z,31.00
2018-09-30T10:57:07.048Z,30.70
2018-09-30T10:59:35.665Z,30.30
2018-09-30T11:02:04.282Z,29.90
2018-09-30T11:04:32.887Z,29.80
2018-09-30T11:07:01.701Z,29.20
2018-09-30T11:09:30.477Z,29.00
2018-09-30T11:11:59.120Z,28.70
2018-09-30T11:14:27.729Z,27.90
2018-09-30T11:16:56.359Z,27.30
2018-09-30T11:19:25.017Z,26.80
2018-09-30T11:21:53.614Z,26.40
2018-09-30T11:24:22.216Z,26.20
2018-09-30T11:26:50.798Z,26.10
2018-09-30T11:29:19.411Z,25.60
2018-09-30T11:31:48.320Z,25.50
2018-09-30T11:34:16.997Z,25.60
2018-09-30T11:36:45.633Z,25.30
2018-09-30T11:39:14.251Z,25.00
2018-09-30T11:41:43.536Z,25.00
2018-09-30T11:44:12.597Z,24.90
2018-09-30T11:46:41.633Z,24.80
2018-09-30T11:49:10.600Z,24.50
2018-09-30T11:51:39.246Z,24.40
2018-09-30T11:54:07.836Z,24.30
2018-09-30T11:56:36.436Z,24.10
2018-09-30T11:59:05.080Z,24.10
2018-09-30T12:01:33.704Z,24.10
2018-09-30T12:04:02.297Z,23.90
2018-09-30T12:06:30.904Z,23.70
2018-09-30T12:08:59.485Z,23.50
2018-09-30T12:11:28.089Z,23.40
2018-09-30T12:13:56.672Z,23.00
2018-09-30T12:16:25.277Z,23.00
2018-09-30T12:18:53.864Z,23.10
2018-09-30T12:21:22.464Z,23.00
2018-09-30T12:23:51.032Z,23.00
2018-09-30T12:26:19.656Z,23.10
2018-09-30T12:28:48.245Z,23.00
2018-09-30T12:31:16.901Z,22.80
2018-09-30T12:33:45.482Z,22.90
2018-09-30T12:36:14.089Z,22.80
2018-09-30T12:38:42.696Z,22.60
2018-09-30T12:41:11.330Z,22.40
2018-09-30T12:43:39.948Z,22.20
2018-09-30T12:46:08.881Z,22.10
2018-09-30T12:48:37.458Z,21.90
2018-09-30T12:51:06.104Z,21.90
2018-09-30T12:53:34.718Z,22.20
2018-09-30T12:56:03.684Z,22.40
2018-09-30T12:58:32.299Z,22.40
2018-09-30T13:01:00.913Z,22.30
2018-09-30T13:03:29.505Z,22.20
2018-09-30T13:05:58.153Z,22.20
2018-09-30T13:08:26.784Z,22.20
2018-09-30T13:10:55.353Z,22.20
2018-09-30T13:13:24.029Z,22.30
2018-09-30T13:15:52.620Z,22.10
2018-09-30T13:18:21.216Z,22.30
2018-09-30T13:20:49.790Z,22.40
2018-09-30T13:23:18.457Z,22.40
2018-09-30T13:25:47.037Z,22.40
2018-09-30T13:28:16.674Z,22.30
2018-09-30T13:30:45.752Z,22.20
2018-09-30T13:33:14.386Z,22.30
2018-09-30T13:35:43.557Z,22.40
2018-09-30T13:38:12.166Z,22.40
2018-09-30T13:40:40.918Z,22.30
2018-09-30T13:43:09.453Z,22.20
2018-09-30T13:45:38.037Z,22.20
2018-09-30T13:48:06.695Z,22.30
2018-09-30T13:50:35.284Z,22.30
2018-09-30T13:53:03.894Z,22.20
2018-09-30T13:55:32.492Z,22.10
2018-09-30T13:58:01.105Z,22.10
2018-09-30T14:00:29.685Z,22.20
2018-09-30T14:02:58.468Z,22.20
2018-09-30T14:05:27.055Z,22.10
2018-09-30T14:07:55.713Z,22.00
2018-09-30T14:10:24.857Z,22.10
2018-09-30T14:12:53.469Z,22.10
2018-09-30T14:15:22.049Z,22.10
2018-09-30T14:17:50.653Z,22.10
2018-09-30T14:20:19.235Z,22.00
2018-09-30T14:22:47.838Z,22.00
2018-09-30T14:25:16.675Z,22.00
2018-09-30T14:27:45.673Z,22.00
2018-09-30T14:30:14.258Z,21.90
2018-09-30T14:32:42.881Z,21.90
2018-09-30T14:35:11.458Z,21.90
2018-09-30T14:37:40.207Z,21.80
2018-09-30T14:40:09.432Z,21.80
2018-09-30T14:42:38.032Z,21.80
2018-09-30T14:45:06.804Z,21.70
2018-09-30T14:47:35.417Z,21.70
2018-09-30T14:50:04.045Z,21.70
2018-09-30T14:52:32.616Z,21.70
2018-09-30T14:55:01.222Z,21.70
2018-09-30T14:57:29.948Z,21.70
2018-09-30T14:59:58.550Z,21.70
2018-09-30T15:02:27.137Z,21.60
2018-09-30T15:04:55.742Z,21.60
2018-09-30T15:07:25.129Z,21.60
2018-09-30T15:09:53.750Z,21.50
2018-09-30T15:12:22.382Z,21.40
2018-09-30T15:14:51.206Z,21.30
2018-09-30T15:17:19.904Z,21.40
2018-09-30T15:19:48.490Z,21.30
2018-09-30T15:22:17.078Z,21.30
2018-09-30T15:24:46.748Z,21.20
2018-09-30T15:27:15.341Z,21.20
2018-09-30T15:29:43.942Z,21.10
2018-09-30T15:32:12.530Z,21.00
2018-09-30T15:34:41.317Z,21.00
2018-09-30T15:37:09.900Z,21.00
2018-09-30T15:39:38.501Z,20.90
2018-09-30T15:42:07.104Z,20.80
2018-09-30T15:44:35.724Z,20.80
2018-09-30T15:47:04.331Z,20.80
2018-09-30T15:49:32.912Z,20.70
2018-09-30T15:52:01.480Z,20.70
2018-09-30T15:54:30.080Z,20.70
2018-09-30T15:56:59.002Z,20.60
2018-09-30T15:59:27.607Z,20.60
2018-09-30T16:01:56.187Z,20.60
2018-09-30T16:04:24.805Z,20.40
2018-09-30T16:06:53.830Z,20.20
2018-09-30T16:09:24.870Z,20.20
2018-09-30T16:11:53.467Z,20.10
2018-09-30T16:14:22.639Z,19.90
2018-09-30T16:16:51.384Z,19.80
2018-09-30T16:19:20.142Z,19.90
2018-09-30T16:21:48.782Z,19.70
2018-09-30T16:24:17.428Z,19.60
2018-09-30T16:26:46.040Z,19.40
2018-09-30T16:29:15.201Z,19.20
2018-09-30T16:31:43.801Z,18.90
2018-09-30T16:34:12.389Z,18.70
2018-09-30T16:36:41.000Z,18.50
2018-09-30T16:39:10.325Z,18.20
2018-09-30T16:41:39.058Z,18.20
2018-09-30T16:44:07.739Z,18.00
2018-09-30T16:46:36.345Z,17.90
2018-09-30T16:49:04.944Z,17.90
2018-09-30T16:51:33.545Z,17.70
2018-09-30T16:54:02.221Z,17.60
2018-09-30T16:56:30.906Z,17.60
2018-09-30T16:58:59.777Z,17.40
2018-09-30T17:01:28.428Z,17.30
2018-09-30T17:03:57.013Z,17.20
2018-09-30T17:06:25.625Z,17.10
2018-09-30T17:08:54.412Z,17.10
2018-09-30T17:11:23.037Z,16.90
2018-09-30T17:13:51.629Z,16.90
2018-09-30T17:16:20.228Z,16.80
2018-09-30T17:18:48.846Z,16.70
2018-09-30T17:21:17.443Z,16.60
2018-09-30T17:23:46.093Z,16.40
2018-09-30T17:26:14.695Z,16.30
2018-09-30T17:28:43.307Z,16.40
2018-09-30T17:31:11.970Z,16.20
2018-09-30T17:33:40.885Z,16.00
2018-09-30T17:36:09.819Z,15.80
2018-09-30T17:38:38.389Z,15.80
2018-09-30T17:41:07.044Z,15.70
2018-09-30T17:43:35.618Z,15.50
2018-09-30T17:46:04.294Z,15.60
2018-09-30T17:48:32.908Z,15.60
2018-09-30T17:51:01.987Z,15.50
2018-09-30T17:53:30.558Z,15.40
2018-09-30T17:55:59.518Z,15.30
2018-09-30T17:58:28.174Z,15.10
2018-09-30T18:00:56.965Z,15.00
2018-09-30T18:03:25.572Z,14.90
2018-09-30T18:05:54.193Z,15.00
2018-09-30T18:08:22.774Z,14.90
2018-09-30T18:10:51.419Z,14.80
2018-09-30T18:13:20.066Z,14.70
2018-09-30T18:15:48.692Z,14.60
2018-09-30T18:18:17.358Z,14.60
2018-09-30T18:20:46.352Z,14.60
2018-09-30T18:23:14.972Z,14.60
2018-09-30T18:25:45.124Z,14.60
2018-09-30T18:28:14.067Z,14.60
2018-09-30T18:30:44.036Z,14.50
2018-09-30T18:33:13.325Z,14.60
2018-09-30T18:35:43.456Z,14.50
2018-09-30T18:38:12.054Z,14.40
2018-09-30T18:40:46.346Z,14.20
2018-09-30T18:43:15.258Z,14.10
2018-09-30T18:45:45.081Z,14.00
2018-09-30T18:48:13.756Z,14.00
2018-09-30T18:50:42.728Z,14.00
2018-09-30T18:53:11.388Z,14.00
2018-09-30T18:55:40.341Z,14.10
2018-09-30T18:58:08.945Z,14.00
2018-09-30T19:00:37.551Z,14.00
2018-09-30T19:03:06.224Z,13.80
2018-09-30T19:05:34.805Z,13.80
2018-09-30T19:08:03.433Z,13.70
2018-09-30T19:10:32.106Z,13.60
2018-09-30T19:13:00.721Z,13.60
2018-09-30T19:15:29.291Z,13.60
2018-09-30T19:17:57.893Z,13.30
2018-09-30T19:20:26.481Z,13.30
2018-09-30T19:22:56.887Z,13.30
2018-09-30T19:25:25.895Z,13.10
2018-09-30T19:27:54.506Z,13.20
2018-09-30T19:30:23.126Z,13.20
2018-09-30T19:32:51.751Z,13.20
2018-09-30T19:35:20.377Z,13.20
2018-09-30T19:37:49.014Z,13.10
2018-09-30T19:40:17.609Z,13.10
2018-09-30T19:42:46.205Z,13.00
2018-09-30T19:45:14.820Z,13.00
2018-09-30T19:47:44.001Z,12.80
2018-09-30T19:50:12.582Z,12.90
2018-09-30T19:52:41.198Z,12.90
2018-09-30T19:55:09.835Z,12.70
2018-09-30T19:57:38.460Z,12.70
2018-09-30T20:00:07.113Z,12.80
2018-09-30T20:02:35.720Z,12.80
2018-09-30T20:05:04.377Z,12.70
2018-09-30T20:07:32.974Z,12.70
2018-09-30T20:10:01.563Z,12.80
2018-09-30T20:12:30.153Z,12.80
2018-09-30T20:14:58.746Z,12.80
2018-09-30T20:17:27.457Z,12.60
2018-09-30T20:19:56.069Z,12.70
2018-09-30T20:22:24.845Z,12.70
2018-09-30T20:24:53.463Z,12.70
2018-09-30T20:27:22.054Z,12.70
2018-09-30T20:29:50.655Z,12.70
2018-09-30T20:32:19.250Z,12.70
2018-09-30T20:34:47.914Z,12.70
2018-09-30T20:37:16.499Z,12.60
2018-09-30T20:39:45.095Z,12.60
2018-09-30T20:42:13.702Z,12.40
2018-09-30T20:44:42.305Z,12.30
2018-09-30T20:47:10.889Z,12.10
2018-09-30T20:49:39.536Z,12.30
2018-09-30T20:52:08.141Z,12.30
2018-09-30T20:54:36.770Z,12.40
2018-09-30T20:57:05.365Z,12.30
2018-09-30T20:59:34.365Z,12.30
2018-09-30T21:02:02.967Z,12.30
2018-09-30T21:04:31.649Z,12.30
2018-09-30T21:07:00.300Z,12.10
2018-09-30T21:09:28.917Z,12.20
2018-09-30T21:11:57.492Z,12.20
2018-09-30T21:14:26.082Z,12.20
2018-09-30T21:16:54.665Z,12.10
2018-09-30T21:19:23.251Z,12.10
2018-09-30T21:21:51.837Z,12.10
2018-09-30T21:24:20.438Z,12.00
2018-09-30T21:26:49.019Z,11.80
2018-09-30T21:29:17.677Z,11.80
2018-09-30T21:31:46.260Z,12.00
2018-09-30T21:34:14.935Z,12.00
2018-09-30T21:36:43.485Z,12.00
2018-09-30T21:39:12.431Z,12.00
2018-09-30T21:41:41.060Z,12.00
2018-09-30T21:44:10.019Z,12.00
2018-09-30T21:46:39.102Z,12.00
2018-09-30T21:49:07.716Z,12.00
2018-09-30T21:51:36.307Z,12.00
2018-09-30T21:54:04.958Z,11.90
2018-09-30T21:56:33.576Z,11.90
2018-09-30T21:59:02.161Z,12.00
2018-09-30T22:01:30.810Z,12.00
2018-09-30T22:03:59.361Z,12.10
2018-09-30T22:06:27.984Z,12.10
2018-09-30T22:08:56.577Z,12.10
2018-09-30T22:11:25.189Z,12.10
2018-09-30T22:13:53.869Z,12.10
2018-09-30T22:16:22.518Z,12.20
2018-09-30T22:18:51.085Z,12.20
2018-09-30T22:21:19.693Z,12.40
2018-09-30T22:23:48.279Z,12.30
2018-09-30T22:26:16.874Z,12.50
2018-09-30T22:28:45.459Z,12.60
2018-09-30T22:31:14.043Z,12.50
2018-09-30T22:33:42.614Z,12.60
2018-09-30T22:36:11.203Z,12.60
2018-09-30T22:38:39.773Z,12.60
2018-09-30T22:41:08.532Z,12.70
2018-09-30T22:43:37.462Z,12.70
2018-09-30T22:46:06.145Z,12.80
2018-09-30T22:48:34.716Z,12.70
2018-09-30T22:51:03.316Z,12.90
2018-09-30T22:53:31.900Z,12.90
2018-09-30T22:56:00.511Z,12.90
2018-09-30T22:58:29.437Z,13.00
2018-09-30T23:00:58.033Z,13.00
2018-09-30T23:03:26.662Z,13.10
2018-09-30T23:05:55.269Z,13.10
2018-09-30T23:08:23.841Z,13.10
2018-09-30T23:10:52.506Z,13.10
2018-09-30T23:13:21.076Z,13.20
2018-09-30T23:15:49.704Z,13.20
2018-09-30T23:18:18.292Z,13.30
2018-09-30T23:20:46.912Z,13.30
2018-09-30T23:23:15.475Z,13.30
2018-09-30T23:25:44.078Z,13.40
2018-09-30T23:28:12.705Z,13.40
2018-09-30T23:30:41.591Z,13.30
2018-09-30T23:33:10.197Z,13.30
2018-09-30T23:35:38.769Z,13.40
2018-09-30T23:38:07.405Z,13.30
2018-09-30T23:40:35.988Z,13.30
2018-09-30T23:43:04.605Z,13.40
2018-09-30T23:45:33.185Z,13.40
2018-09-30T23:48:01.760Z,13.40
2018-09-30T23:50:30.757Z,13.40
2018-09-30T23:52:59.358Z,13.40
2018-09-30T23:55:27.937Z,13.50
2018-09-30T23:58:09.968Z,13.40
